Time;durP1;ratioP1;P1;durP2;ratioP2;P2;SDS_P1;SDS_P2;PMS_P1;PMS_P2;Temp;Humidity;BMP_temperature;BMP_pressure;BME280_temperature;BME280_humidity;BME280_pressure;Samples;Min_cycle;Max_cycle;Signal;HPM_P1;HPM_P2
2022/03/17 00:02:09;;;;;;;12.68;11.20;;;;;;;20.35;44.75;102016.78;5053788;28;20078;-76
2022/03/17 00:04:36;;;;;;;12.98;11.68;;;;;;;20.33;44.73;102016.84;5053290;28;20041;-76
2022/03/17 00:07:03;;;;;;;13.38;11.95;;;;;;;20.34;44.80;102018.59;5053963;28;20044;-76
2022/03/17 00:09:31;;;;;;;12.20;10.75;;;;;;;20.34;44.88;102013.22;5052335;28;20045;-76
2022/03/17 00:11:59;;;;;;;11.90;10.70;;;;;;;20.33;44.76;102016.00;5053183;28;20048;-76
2022/03/17 00:14:26;;;;;;;12.20;11.00;;;;;;;20.34;44.82;102007.00;5051762;28;20032;-76
2022/03/17 00:16:54;;;;;;;11.57;10.10;;;;;;;20.34;44.43;102013.22;5053436;28;20048;-76
2022/03/17 00:19:21;;;;;;;12.90;11.23;;;;;;;20.33;44.55;102008.78;5052144;28;20416;-76
2022/03/17 00:21:49;;;;;;;11.93;10.63;;;;;;;20.34;44.53;102015.06;5053540;28;20369;-76
2022/03/17 00:24:17;;;;;;;11.65;10.48;;;;;;;20.33;44.57;102016.00;5051857;28;20064;-76
2022/03/17 00:26:44;;;;;;;11.70;10.50;;;;;;;20.34;44.42;102017.75;5053754;28;20048;-76
2022/03/17 00:29:12;;;;;;;12.55;11.05;;;;;;;20.33;44.50;102018.69;5052933;28;20060;-76
2022/03/17 00:31:40;;;;;;;11.50;10.40;;;;;;;20.32;44.45;102020.53;5053477;28;20048;-76
2022/03/17 00:34:08;;;;;;;11.85;10.55;;;;;;;20.33;44.47;102016.00;5051464;28;20041;-76
2022/03/17 00:36:36;;;;;;;11.68;10.57;;;;;;;20.34;44.20;102015.91;5054371;28;20056;-76
2022/03/17 00:39:05;;;;;;;11.35;10.15;;;;;;;20.34;44.33;102020.44;5057455;28;20048;-76
2022/03/17 00:41:33;;;;;;;11.68;10.50;;;;;;;20.33;44.42;102019.56;5057232;28;20499;-76
2022/03/17 00:44:00;;;;;;;11.18;10.07;;;;;;;20.34;44.39;102015.06;5056810;28;20033;-76
2022/03/17 00:46:28;;;;;;;11.75;10.23;;;;;;;20.34;44.32;102020.44;5056881;28;20049;-76
2022/03/17 00:48:57;;;;;;;11.50;10.30;;;;;;;20.33;44.19;102014.16;5039649;28;20053;-76
2022/03/17 00:51:25;;;;;;;10.88;9.75;;;;;;;20.34;44.13;102018.59;5057626;28;20049;-76
2022/03/17 00:53:52;;;;;;;11.05;9.90;;;;;;;20.34;44.34;102009.69;5057494;28;20041;-76
2022/03/17 00:56:19;;;;;;;10.88;9.88;;;;;;;20.34;44.22;102015.06;5056930;28;20049;-76
2022/03/17 00:58:48;;;;;;;10.98;9.98;;;;;;;20.34;44.34;102015.06;5056949;28;20045;-76
2022/03/17 01:01:17;;;;;;;10.85;9.88;;;;;;;20.34;44.24;102018.59;5055612;28;20526;-75
2022/03/17 01:03:46;;;;;;;10.27;9.27;;;;;;;20.34;44.28;102015.06;5056756;28;20051;-76
2022/03/17 01:06:14;;;;;;;10.90;9.90;;;;;;;20.34;44.14;102007.84;5056938;28;20049;-76
2022/03/17 01:08:42;;;;;;;10.98;9.88;;;;;;;20.35;44.13;102006.00;5056734;28;20049;-76
2022/03/17 01:11:10;;;;;;;11.82;10.43;;;;;;;20.35;44.26;102006.88;5055785;28;20401;-76
2022/03/17 01:13:37;;;;;;;11.18;10.02;;;;;;;20.35;44.21;102000.63;5055249;28;20394;-76
2022/03/17 01:16:04;;;;;;;14.07;10.07;;;;;;;20.34;44.10;102009.69;5056721;28;20049;-76
2022/03/17 01:18:32;;;;;;;11.15;9.98;;;;;;;20.34;44.21;102001.63;5057017;28;20049;-76
2022/03/17 01:20:59;;;;;;;10.73;9.73;;;;;;;20.35;44.11;102006.00;5056541;28;20059;-76
2022/03/17 01:23:30;;;;;;;10.57;9.35;;;;;;;20.36;44.33;101996.97;5057256;28;20041;-76
2022/03/17 01:25:58;;;;;;;10.93;9.93;;;;;;;20.35;44.31;102004.19;5054589;28;20049;-76
2022/03/17 01:28:25;;;;;;;9.88;8.95;;;;;;;20.35;44.32;101995.25;5055997;28;20435;-76
2022/03/17 01:30:53;;;;;;;10.15;9.15;;;;;;;20.35;44.22;101989.88;5055363;28;20053;-75
2022/03/17 01:33:21;;;;;;;11.32;10.32;;;;;;;20.35;44.30;101995.25;5056727;28;20499;-75
2022/03/17 01:35:48;;;;;;;10.60;9.55;;;;;;;20.35;44.60;101996.13;5054948;28;20052;-76
2022/03/17 01:38:15;;;;;;;10.43;9.43;;;;;;;20.35;44.59;101993.44;5055838;28;20515;-75
2022/03/17 01:40:43;;;;;;;11.15;9.77;;;;;;;20.35;44.61;101990.72;5055858;28;20048;-76
2022/03/17 01:43:10;;;;;;;10.18;9.27;;;;;;;20.36;44.49;101992.44;5055705;28;20048;-75
2022/03/17 01:45:38;;;;;;;11.60;10.48;;;;;;;20.36;44.62;101992.44;5056295;28;20049;-76
2022/03/17 01:48:05;;;;;;;10.30;9.30;;;;;;;20.36;44.69;101994.28;5053345;28;20086;-75
2022/03/17 01:50:33;;;;;;;11.05;9.85;;;;;;;20.36;44.46;101994.28;5055755;28;20396;-76
2022/03/17 01:53:00;;;;;;;10.52;9.50;;;;;;;20.36;44.46;101991.59;5054303;28;20049;-76
2022/03/17 01:55:28;;;;;;;10.13;9.13;;;;;;;20.36;44.50;101999.66;5055499;28;20401;-76
2022/03/17 01:57:56;;;;;;;10.23;9.27;;;;;;;20.37;44.50;102001.38;5055521;28;20496;-76
2022/03/17 02:00:23;;;;;;;10.38;9.38;;;;;;;20.36;44.46;102007.72;5054406;28;20493;-76
2022/03/17 02:02:52;;;;;;;11.68;9.65;;;;;;;20.37;44.41;102006.75;5056299;28;20052;-76
2022/03/17 02:05:20;;;;;;;9.88;8.88;;;;;;;20.36;44.49;101999.66;5054319;28;20041;-77
2022/03/17 02:07:51;;;;;;;10.52;9.52;;;;;;;20.37;44.37;102007.59;5055403;28;20056;-77
2022/03/17 02:10:20;;;;;;;10.63;9.60;;;;;;;20.36;44.55;102002.34;5054774;28;20056;-77
2022/03/17 02:15:34;;;;;;;10.73;9.73;;;;;;;20.36;44.41;101999.66;5056075;28;20049;-77
2022/03/17 02:18:06;;;;;;;11.00;9.80;;;;;;;20.36;44.52;102005.88;5055537;28;20049;-76
2022/03/17 02:20:37;;;;;;;10.70;9.52;;;;;;;20.38;44.31;102000.44;5054275;28;20072;-76
2022/03/17 02:25:56;;;;;;;11.13;9.60;;;;;;;20.37;44.33;102004.06;5053949;28;20060;-77
2022/03/17 02:28:29;;;;;;;10.70;9.40;;;;;;;20.38;44.24;102011.19;5055819;28;20385;-76
2022/03/17 02:30:57;;;;;;;;;;;;;;;20.36;44.27;102013.97;5053879;28;20064;-77
2022/03/17 02:33:26;;;;;;;10.10;9.10;;;;;;;20.37;44.28;102009.44;5055616;28;19935;-77
2022/03/17 02:35:56;;;;;;;10.13;9.18;;;;;;;20.37;44.43;102006.75;5054821;28;20060;-77
2022/03/17 02:38:24;;;;;;;10.13;8.85;;;;;;;20.37;44.20;102012.97;5055300;28;20396;-77
2022/03/17 02:40:52;;;;;;;12.23;9.57;;;;;;;20.38;44.27;102014.72;5054856;28;20056;-76
2022/03/17 02:43:20;;;;;;;10.07;9.07;;;;;;;20.37;44.27;102015.66;5054778;28;20056;-76
2022/03/17 02:45:47;;;;;;;10.43;9.43;;;;;;;20.38;44.10;102021.94;5053905;28;20055;-76
2022/03/17 02:48:19;;;;;;;10.70;9.60;;;;;;;20.38;44.15;102016.56;5055137;28;20045;-76
2022/03/17 02:50:46;;;;;;;10.85;9.75;;;;;;;20.37;44.19;102010.28;5055076;28;20060;-76
2022/03/17 02:53:15;;;;;;;11.95;10.70;;;;;;;20.38;44.20;102013.88;5054604;28;20575;-76
2022/03/17 02:55:44;;;;;;;10.63;9.63;;;;;;;20.37;44.36;102018.38;5054337;28;20047;-76
2022/03/17 02:58:13;;;;;;;10.73;9.73;;;;;;;20.38;44.46;102014.72;5055142;28;20044;-76
2022/03/17 03:00:40;;;;;;;11.07;10.02;;;;;;;20.39;44.30;102018.28;5052651;28;20057;-75
2022/03/17 03:03:08;;;;;;;13.85;9.50;;;;;;;20.38;44.34;102020.09;5054321;28;20060;-76
2022/03/17 03:05:36;;;;;;;10.85;9.75;;;;;;;20.39;44.42;102024.50;5054307;28;20420;-77
2022/03/17 03:08:04;;;;;;;9.95;9.05;;;;;;;20.39;44.61;102026.34;5054893;28;20472;-78
2022/03/17 03:10:31;;;;;;;10.55;9.15;;;;;;;20.40;44.45;102022.69;5053070;28;20057;-77
2022/03/17 03:12:59;;;;;;;10.48;9.50;;;;;;;20.41;44.55;102021.69;5052812;28;20049;-78
2022/03/17 03:15:27;;;;;;;10.68;9.60;;;;;;;20.41;44.74;102021.69;5054048;28;20052;-77
2022/03/17 03:17:57;;;;;;;11.40;10.27;;;;;;;20.40;44.54;102022.69;5054303;28;20041;-76
2022/03/17 03:20:25;;;;;;;11.57;10.48;;;;;;;20.40;44.53;102023.53;5055069;28;20072;-76
2022/03/17 03:22:52;;;;;;;11.20;10.20;;;;;;;20.40;44.49;102018.16;5054359;28;20055;-76
2022/03/17 03:25:19;;;;;;;11.98;10.77;;;;;;;20.40;44.45;102020.84;5053920;28;20040;-76
2022/03/17 03:27:47;;;;;;;12.88;9.98;;;;;;;20.40;44.42;102017.28;5053873;28;20053;-76
2022/03/17 03:30:15;;;;;;;10.90;9.80;;;;;;;20.40;44.62;102020.84;5054611;28;20045;-76
2022/03/17 03:32:47;;;;;;;11.75;10.55;;;;;;;20.40;44.60;102025.38;5052740;28;20045;-76
2022/03/17 03:38:01;;;;;;;11.65;10.45;;;;;;;20.40;44.32;102022.69;5053805;28;20049;-76
2022/03/17 03:40:29;;;;;;;11.30;10.30;;;;;;;20.40;44.50;102019.97;5053655;28;20052;-77
2022/03/17 03:42:56;;;;;;;12.85;10.73;;;;;;;20.41;44.33;102027.06;5053548;28;20045;-76
2022/03/17 03:45:23;;;;;;;11.73;10.50;;;;;;;20.40;44.34;102019.97;5053533;28;20100;-76
2022/03/17 03:47:51;;;;;;;11.63;10.43;;;;;;;20.40;44.44;102028.91;5053503;28;20068;-76
2022/03/17 03:50:18;;;;;;;11.65;10.55;;;;;;;20.41;44.38;102027.06;5052945;28;20093;-76
2022/03/17 03:52:46;;;;;;;12.15;10.73;;;;;;;20.41;44.43;102017.16;5053671;28;20049;-76
2022/03/17 03:55:13;;;;;;;11.27;10.23;;;;;;;20.41;44.28;102024.38;5053823;28;20048;-76
2022/03/17 03:57:42;;;;;;;12.73;10.75;;;;;;;20.42;44.27;102020.75;5053357;28;20049;-76
2022/03/17 04:02:57;;;;;;;11.65;10.30;;;;;;;20.43;44.23;102019.78;5052269;28;20052;-76
2022/03/17 04:05:29;;;;;;;11.75;10.55;;;;;;;20.42;44.52;102024.28;5053230;28;20041;-76
2022/03/17 04:07:57;;;;;;;11.73;10.63;;;;;;;20.42;44.35;102024.28;5053500;28;20049;-77
2022/03/17 04:10:28;;;;;;;10.95;9.75;;;;;;;20.42;44.40;102029.69;5053014;28;20049;-77
2022/03/17 04:12:56;;;;;;;12.15;10.98;;;;;;;20.41;44.48;102027.94;5051727;28;20053;-76
2022/03/17 04:15:23;;;;;;;12.20;11.00;;;;;;;20.42;44.54;102031.50;5052016;28;20045;-76
2022/03/17 04:17:51;;;;;;;13.07;10.82;;;;;;;20.42;44.47;102039.56;5053112;28;20045;-76
2022/03/17 04:20:19;;;;;;;12.13;10.88;;;;;;;20.42;44.45;102036.88;5053695;28;20464;-76
2022/03/17 04:22:46;;;;;;;14.52;10.63;;;;;;;20.42;44.45;102039.56;5052927;28;20041;-76
2022/03/17 04:25:13;;;;;;;11.75;10.55;;;;;;;20.42;44.65;102034.19;5053534;28;20377;-76
2022/03/17 04:27:42;;;;;;;12.80;11.43;;;;;;;20.42;44.43;102040.44;5053353;28;20060;-76
2022/03/17 04:30:09;;;;;;;13.27;11.48;;;;;;;20.42;44.52;102044.97;5052967;28;20045;-76
2022/03/17 04:32:37;;;;;;;14.90;12.27;;;;;;;20.42;44.53;102051.19;5052937;28;20060;-76
2022/03/17 04:35:06;;;;;;;13.27;11.43;;;;;;;20.42;44.51;102045.81;5053212;28;20377;-76
2022/03/17 04:37:34;;;;;;;14.38;11.82;;;;;;;20.42;44.56;102051.19;5052835;28;20097;-76
2022/03/17 04:40:03;;;;;;;12.65;11.45;;;;;;;20.42;44.53;102045.81;5052199;28;20095;-76
2022/03/17 04:42:31;;;;;;;12.05;10.95;;;;;;;20.42;44.35;102043.13;5053345;28;20049;-76
2022/03/17 04:44:58;;;;;;;12.68;11.30;;;;;;;20.42;44.37;102051.19;5053346;28;20036;-76
2022/03/17 04:47:25;;;;;;;13.00;11.65;;;;;;;20.43;44.39;102057.44;5053440;28;20392;-76
2022/03/17 04:49:53;;;;;;;12.40;10.73;;;;;;;20.43;44.44;102054.75;5053067;28;20116;-76
2022/03/17 04:55:07;;;;;;;12.27;11.07;;;;;;;20.42;44.31;102056.56;5053188;28;20049;-76
2022/03/17 04:57:34;;;;;;;12.65;11.45;;;;;;;20.42;44.22;102067.34;5053430;28;20041;-76
2022/03/17 05:00:02;;;;;;;13.07;11.75;;;;;;;20.43;44.24;102065.50;5051308;28;20053;-76
2022/03/17 05:02:30;;;;;;;13.23;11.38;;;;;;;20.42;44.02;102063.78;5052573;28;20045;-76
2022/03/17 05:04:58;;;;;;;13.27;11.80;;;;;;;20.43;44.18;102063.66;5052634;28;20041;-76
2022/03/17 05:07:25;;;;;;;12.45;11.25;;;;;;;20.43;44.27;102065.50;5052877;28;20048;-76
2022/03/17 05:09:52;;;;;;;13.38;11.65;;;;;;;20.43;44.09;102065.50;5053164;28;20429;-76
2022/03/17 05:12:19;;;;;;;13.55;11.27;;;;;;;20.45;44.18;102071.63;5052848;28;20048;-76
2022/03/17 05:14:47;;;;;;;12.23;11.02;;;;;;;20.46;44.14;102073.34;5052855;28;20037;-76
2022/03/17 05:17:14;;;;;;;12.68;11.48;;;;;;;20.46;44.17;102071.53;5052412;28;20052;-76
2022/03/17 05:19:41;;;;;;;13.23;11.93;;;;;;;20.46;44.26;102076.91;5052459;28;20492;-76
2022/03/17 05:22:09;;;;;;;12.77;11.57;;;;;;;20.46;44.21;102067.97;5052797;28;20041;-75
2022/03/17 05:24:36;;;;;;;11.75;10.65;;;;;;;20.46;44.20;102067.97;5056152;28;20041;-76
2022/03/17 05:27:03;;;;;;;12.95;11.60;;;;;;;20.45;44.31;102059.03;5054880;28;20052;-76
2022/03/17 05:29:31;;;;;;;13.15;11.95;;;;;;;20.44;44.21;102076.13;5056702;28;20041;-76
2022/03/17 05:31:58;;;;;;;11.57;10.43;;;;;;;20.45;44.22;102075.16;5056023;28;20044;-75
2022/03/17 05:34:32;;;;;;;13.43;12.13;;;;;;;20.45;44.25;102074.31;5056249;28;20056;-75
2022/03/17 05:36:59;;;;;;;13.60;12.23;;;;;;;20.45;44.25;102085.06;5056274;28;20045;-76
2022/03/17 05:39:27;;;;;;;12.60;11.40;;;;;;;20.44;44.24;102075.28;5055549;28;20048;-76
2022/03/17 05:41:54;;;;;;;13.20;11.88;;;;;;;20.44;44.45;102081.50;5056547;28;20052;-76
2022/03/17 05:44:21;;;;;;;14.02;12.73;;;;;;;20.44;44.31;102084.22;5038551;28;20056;-76
2022/03/17 05:46:49;;;;;;;13.43;12.13;;;;;;;20.44;44.26;102086.03;5056276;28;20041;-76
2022/03/17 05:49:16;;;;;;;13.02;11.73;;;;;;;20.44;44.39;102089.59;5054527;28;20052;-76
2022/03/17 05:51:44;;;;;;;12.23;11.13;;;;;;;20.44;44.21;102094.09;5056464;28;20052;-77
2022/03/17 05:54:11;;;;;;;13.15;11.80;;;;;;;20.43;44.35;102098.63;5056085;28;20048;-76
2022/03/17 05:56:38;;;;;;;13.65;12.25;;;;;;;20.44;44.35;102091.41;5054556;28;20436;-76
2022/03/17 05:59:06;;;;;;;12.88;11.55;;;;;;;20.43;44.30;102092.41;5055510;28;20056;-76
2022/03/17 06:01:34;;;;;;;13.18;11.88;;;;;;;20.44;44.41;102099.50;5056467;28;20044;-76
2022/03/17 06:04:02;;;;;;;13.70;12.25;;;;;;;20.43;44.26;102105.84;5055336;28;20400;-76
2022/03/17 06:06:29;;;;;;;14.10;12.70;;;;;;;20.43;44.36;102098.63;5056367;28;20037;-76
2022/03/17 06:08:56;;;;;;;11.88;10.77;;;;;;;20.44;44.32;102107.56;5054101;28;20053;-76
2022/03/17 06:11:24;;;;;;;13.15;11.80;;;;;;;20.44;44.26;102107.56;5056080;28;20049;-76
2022/03/17 06:13:53;;;;;;;13.60;11.27;;;;;;;20.44;44.03;102113.78;5055305;28;20045;-76
2022/03/17 06:16:20;;;;;;;13.35;12.07;;;;;;;20.44;44.03;102107.56;5055179;28;20049;-76
2022/03/17 06:18:48;;;;;;;13.45;12.15;;;;;;;20.44;44.11;102112.94;5054002;28;20053;-75
2022/03/17 06:21:17;;;;;;;14.30;12.80;;;;;;;20.44;44.01;102119.19;5055163;28;20049;-77
2022/03/17 06:23:44;;;;;;;13.75;12.45;;;;;;;20.44;44.09;102121.88;5055499;28;20488;-76
2022/03/17 06:26:12;;;;;;;13.68;12.38;;;;;;;20.44;44.13;102112.94;5055317;28;20045;-76
2022/03/17 06:28:39;;;;;;;13.20;11.85;;;;;;;20.45;44.13;102120.88;5054953;28;20139;-76
2022/03/17 06:31:07;;;;;;;13.43;12.18;;;;;;;20.45;44.18;102125.41;5055471;28;20086;-76
2022/03/17 06:33:34;;;;;;;15.25;13.68;;;;;;;20.44;44.14;102127.25;5055098;28;20136;-76
2022/03/17 06:36:01;;;;;;;15.00;13.50;;;;;;;20.43;44.06;102127.38;5053461;28;20049;-76
2022/03/17 06:38:29;;;;;;;13.30;11.95;;;;;;;20.43;44.06;102121.97;5055263;28;20044;-76
2022/03/17 06:40:56;;;;;;;12.77;11.52;;;;;;;20.43;44.02;102122.84;5054354;28;20492;-76
2022/03/17 06:43:23;;;;;;;14.00;12.77;;;;;;;20.43;44.17;102122.84;5054831;28;20045;-76
2022/03/17 06:45:51;;;;;;;14.10;12.80;;;;;;;20.44;44.22;102123.69;5053892;28;20049;-76
2022/03/17 06:48:18;;;;;;;13.23;11.98;;;;;;;20.43;44.02;102117.47;5054818;28;20049;-76
2022/03/17 06:50:46;;;;;;;12.88;11.68;;;;;;;20.44;44.04;102123.69;5055092;28;20056;-76
2022/03/17 06:53:13;;;;;;;12.82;11.68;;;;;;;20.43;44.15;102121.97;5054536;28;20060;-76
2022/03/17 06:55:40;;;;;;;15.13;13.15;;;;;;;20.43;44.10;102121.97;5055217;28;20052;-76
2022/03/17 06:58:08;;;;;;;13.40;12.10;;;;;;;20.43;44.15;102128.22;5054870;28;20481;-75
2022/03/17 07:00:35;;;;;;;13.95;12.65;;;;;;;20.44;44.34;102127.25;5053255;28;20056;-76
2022/03/17 07:03:03;;;;;;;13.40;12.13;;;;;;;20.45;44.35;102133.47;5054894;28;20041;-75
2022/03/17 07:05:30;;;;;;;12.82;11.52;;;;;;;20.44;44.17;102138.00;5054277;28;20408;-76
2022/03/17 07:07:58;;;;;;;14.25;12.85;;;;;;;20.46;44.42;102137.91;5053181;28;20610;-76
2022/03/17 07:10:27;;;;;;;13.60;12.30;;;;;;;20.45;44.19;102139.72;5054148;28;20052;-76
2022/03/17 07:12:55;;;;;;;13.50;12.27;;;;;;;20.46;44.39;102137.91;5053013;28;20515;-76
2022/03/17 07:15:22;;;;;;;12.93;11.73;;;;;;;20.46;43.89;102146.00;5054153;28;20060;-77
2022/03/17 07:17:50;;;;;;;14.02;12.70;;;;;;;20.45;44.13;102145.09;5052970;28;20052;-77
2022/03/17 07:20:21;;;;;;;12.95;11.57;;;;;;;20.44;44.29;102148.75;5054066;28;20049;-77
2022/03/17 07:22:50;;;;;;;13.07;11.77;;;;;;;20.45;44.44;102158.53;5053657;28;20040;-77
2022/03/17 07:25:18;;;;;;;12.40;11.20;;;;;;;20.46;44.18;102156.75;5054847;28;20049;-77
2022/03/17 07:27:47;;;;;;;13.15;11.90;;;;;;;20.45;44.35;102155.84;5052805;28;20049;-77
2022/03/17 07:30:18;;;;;;;12.70;11.50;;;;;;;20.45;44.29;102158.53;5053886;28;20484;-77
2022/03/17 07:32:48;;;;;;;12.95;11.65;;;;;;;20.45;44.30;102155.00;5054307;28;20045;-76
2022/03/17 07:35:16;;;;;;;13.82;12.43;;;;;;;20.45;44.45;102155.00;5054446;28;20504;-76
2022/03/17 07:37:45;;;;;;;12.88;11.68;;;;;;;20.45;44.20;102153.16;5053630;28;20045;-78
2022/03/17 07:40:15;;;;;;;12.35;11.20;;;;;;;20.45;44.17;102157.69;5053865;28;20053;-75
2022/03/17 07:42:42;;;;;;;12.38;11.07;;;;;;;20.45;44.30;102155.00;5053353;28;20052;-76
2022/03/17 07:45:34;;;;;;;18.77;11.55;;;;;;;20.45;44.33;102165.75;5052913;28;20053;-76
2022/03/17 07:48:20;;;;;;;12.10;10.90;;;;;;;20.45;44.31;102157.69;5059048;28;20049;-76
2022/03/17 07:51:00;;;;;;;13.73;12.40;;;;;;;20.44;44.34;102154.16;5051554;28;20508;-76
2022/03/17 07:53:28;;;;;;;12.80;10.90;;;;;;;20.44;44.20;102158.66;5053208;28;20037;-75
2022/03/17 07:55:56;;;;;;;13.48;12.07;;;;;;;20.45;44.32;102157.69;5053584;28;20044;-76
2022/03/17 07:58:26;;;;;;;12.05;10.50;;;;;;;20.45;45.10;102168.44;5053094;28;20049;-77
2022/03/17 08:00:55;;;;;;;14.27;11.48;;;;;;;20.43;44.92;102165.88;5053605;28;20044;-77
2022/03/17 08:03:23;;;;;;;13.57;12.27;;;;;;;20.43;44.51;102175.78;5053455;28;20052;-75
2022/03/17 08:05:53;;;;;;;45.45;40.55;;;;;;;20.24;43.23;102178.88;5053682;28;20041;-75
2022/03/17 08:08:21;;;;;;;46.90;41.85;;;;;;;19.85;43.79;102168.97;5053005;28;20055;-75
2022/03/17 08:10:51;;;;;;;46.92;41.75;;;;;;;19.56;44.59;102166.38;5052727;28;20056;-75
2022/03/17 08:13:18;;;;;;;50.78;45.25;;;;;;;19.35;44.95;102167.78;5053778;28;20053;-75
2022/03/17 08:15:46;;;;;;;49.50;44.08;;;;;;;19.29;45.03;102173.56;5053716;28;20048;-76
2022/03/17 08:18:15;;;;;;;52.38;45.97;;;;;;;19.18;45.11;102166.19;5053425;28;20041;-75
2022/03/17 08:20:42;;;;;;;53.10;47.30;;;;;;;19.03;46.27;102171.56;5051834;28;20049;-75
2022/03/17 08:23:10;;;;;;;52.53;45.65;;;;;;;19.07;46.75;102172.22;5053146;28;20045;-75
2022/03/17 08:25:37;;;;;;;53.53;47.72;;;;;;;18.98;46.99;102180.88;5053833;28;20044;-75
2022/03/17 08:28:04;;;;;;;56.03;49.65;;;;;;;18.93;47.03;102173.13;5052875;28;20044;-75
2022/03/17 08:30:38;;;;;;;55.20;47.58;;;;;;;18.90;46.99;102180.50;5053345;28;20511;-75
2022/03/17 08:33:05;;;;;;;53.38;46.70;;;;;;;18.95;47.06;102181.06;5053151;28;20481;-75
2022/03/17 08:35:38;;;;;;;52.40;46.67;;;;;;;19.00;46.92;102177.16;5051863;28;20052;-75
2022/03/17 08:38:06;;;;;;;51.25;45.75;;;;;;;19.06;46.85;102180.41;5053110;28;20052;-75
2022/03/17 08:40:35;;;;;;;52.58;46.45;;;;;;;19.14;46.49;102180.78;5053467;28;20493;-75
2022/03/17 08:43:02;;;;;;;51.10;45.53;;;;;;;19.22;46.35;102175.78;5052999;28;20056;-75
2022/03/17 08:51:02;;;;;;;56.33;48.80;;;;;;;19.24;45.85;102185.47;5053173;28;20049;-75
2022/03/17 08:53:29;;;;;;;54.47;48.72;;;;;;;19.13;46.10;102182.59;5051832;28;20496;-75
2022/03/17 08:55:57;;;;;;;52.72;47.22;;;;;;;19.09;46.07;102199.00;5052919;28;20045;-76
2022/03/17 08:58:25;;;;;;;52.47;46.78;;;;;;;19.08;46.25;102192.78;5054910;28;20048;-76
2022/03/17 09:00:54;;;;;;;49.45;44.17;;;;;;;19.16;45.69;102193.16;5056908;28;20045;-75
2022/03/17 09:03:25;;;;;;;55.63;49.42;;;;;;;19.11;46.15;102186.31;5056425;28;20059;-75
2022/03/17 09:05:52;;;;;;;56.88;47.55;;;;;;;18.98;46.72;102194.28;5056644;28;20512;-75
2022/03/17 09:08:20;;;;;;;56.22;50.17;;;;;;;18.92;46.95;102190.19;5055105;28;20056;-75
2022/03/17 09:10:48;;;;;;;55.10;49.15;;;;;;;18.88;46.88;102191.34;5055136;28;20072;-75
2022/03/17 09:13:16;;;;;;;54.58;48.67;;;;;;;18.89;46.71;102179.63;5056258;28;20049;-75
2022/03/17 09:15:43;;;;;;;53.67;47.92;;;;;;;18.93;46.95;102191.91;5056153;28;20044;-75
2022/03/17 09:18:12;;;;;;;53.72;47.95;;;;;;;18.96;46.81;102182.81;5056085;28;20037;-76
2022/03/17 09:20:41;;;;;;;58.75;48.97;;;;;;;18.93;47.09;102188.38;5056375;28;20045;-75
2022/03/17 09:23:09;;;;;;;52.05;46.40;;;;;;;18.93;46.89;102185.69;5056614;28;20049;-75
2022/03/17 09:25:36;;;;;;;49.63;44.22;;;;;;;19.00;46.91;102184.34;5056149;28;20051;-76
2022/03/17 09:28:04;;;;;;;53.20;47.33;;;;;;;19.06;46.95;102192.00;5055453;28;20048;-75
2022/03/17 09:30:32;;;;;;;48.10;42.92;;;;;;;19.10;46.64;102181.94;5056309;28;20060;-76
2022/03/17 09:33:02;;;;;;;49.83;44.55;;;;;;;19.15;46.55;102179.81;5056216;28;20052;-75
2022/03/17 09:35:30;;;;;;;49.65;44.35;;;;;;;19.17;46.50;102189.50;5055783;28;20040;-75
2022/03/17 09:37:57;;;;;;;49.55;44.25;;;;;;;19.18;46.41;102196.59;5054663;28;20045;-75
2022/03/17 09:40:25;;;;;;;50.28;45.05;;;;;;;19.15;46.90;102202.13;5056008;28;20045;-75
2022/03/17 09:43:18;;;;;;;49.33;44.10;;;;;;;19.13;47.14;102190.66;5055022;28;20051;-76
2022/03/17 09:45:41;;;;;;;47.17;41.80;;;;;;;19.13;47.07;102193.34;5056096;28;20400;-75
2022/03/17 09:48:11;;;;;;;47.60;42.53;;;;;;;19.12;47.16;102193.41;5055866;28;20400;-76
2022/03/17 09:50:39;;;;;;;45.95;41.22;;;;;;;19.13;47.24;102187.09;5056025;28;20049;-75
2022/03/17 09:53:08;;;;;;;47.17;42.08;;;;;;;19.09;47.57;102189.13;5054570;28;20053;-75
2022/03/17 09:55:36;;;;;;;47.70;42.70;;;;;;;19.09;47.67;102191.81;5054298;28;20061;-75
2022/03/17 09:58:06;;;;;;;46.10;41.28;;;;;;;19.12;47.58;102194.31;5056021;28;20048;-75
2022/03/17 10:00:49;;;;;;;44.10;39.60;;;;;;;19.12;47.44;102190.72;5055560;28;20079;-75
2022/03/17 10:03:18;;;;;;;42.25;37.78;;;;;;;19.13;47.49;102197.84;5055410;28;20040;-75
2022/03/17 10:05:48;;;;;;;41.70;37.25;;;;;;;19.16;47.59;102198.50;5056126;28;20045;-75
2022/03/17 10:08:21;;;;;;;37.13;32.58;;;;;;;19.22;47.07;102194.56;5055573;28;20040;-75
2022/03/17 10:10:49;;;;;;;33.70;30.08;;;;;;;19.27;47.00;102197.81;5054573;28;20045;-75
2022/03/17 10:13:19;;;;;;;31.52;28.17;;;;;;;19.31;46.56;102191.28;5055423;28;20049;-75
2022/03/17 10:16:05;;;;;;;31.95;27.98;;;;;;;19.36;46.63;102196.34;5038369;28;20049;-75
2022/03/17 10:18:48;;;;;;;29.63;26.63;;;;;;;19.40;46.62;102189.81;5054499;28;20385;-75
2022/03/17 10:21:24;;;;;;;30.23;26.95;;;;;;;19.44;46.53;102192.22;5055154;28;20416;-75
2022/03/17 10:23:54;;;;;;;28.30;25.40;;;;;;;19.47;46.56;102191.16;5055431;28;20045;-75
2022/03/17 10:26:41;;;;;;;30.92;25.55;;;;;;;19.50;46.64;102185.59;5055191;28;20507;-76
2022/03/17 10:29:20;;;;;;;28.85;25.65;;;;;;;19.51;46.54;102198.91;5055108;28;20045;-75
2022/03/17 10:32:04;;;;;;;25.70;23.13;;;;;;;19.53;46.44;102185.41;5053745;28;20404;-75
2022/03/17 10:34:55;;;;;;;26.42;23.67;;;;;;;19.57;46.41;102188.72;5037834;28;20057;-75
2022/03/17 10:37:25;;;;;;;26.45;23.67;;;;;;;19.58;46.34;102194.00;5052504;28;20045;-76
2022/03/17 10:40:07;;;;;;;26.17;23.33;;;;;;;19.59;46.43;102186.81;5054723;28;20486;-75
2022/03/17 10:42:40;;;;;;;25.58;22.38;;;;;;;19.61;46.46;102187.59;5054736;28;20052;-75
2022/03/17 10:45:16;;;;;;;24.35;21.80;;;;;;;19.62;46.29;102187.50;5055205;28;20045;-75
2022/03/17 10:47:43;;;;;;;23.88;21.30;;;;;;;19.64;46.22;102192.75;5053655;28;20535;-75
2022/03/17 10:50:20;;;;;;;25.63;22.58;;;;;;;19.65;46.26;102183.78;5055302;28;20041;-75
2022/03/17 10:53:00;;;;;;;24.52;21.92;;;;;;;19.64;46.26;102188.25;5055084;28;20056;-75
2022/03/17 10:55:30;;;;;;;24.00;21.27;;;;;;;19.66;46.36;102191.72;5053857;28;20037;-75
2022/03/17 10:58:13;;;;;;;23.02;20.73;;;;;;;19.67;46.24;102184.50;5055000;28;20052;-75
2022/03/17 11:00:57;;;;;;;22.80;20.50;;;;;;;19.69;46.09;102187.97;5054018;28;20416;-75
2022/03/17 11:03:25;;;;;;;21.92;19.65;;;;;;;19.70;46.25;102187.88;5054707;28;20107;-76
2022/03/17 11:05:53;;;;;;;21.48;19.23;;;;;;;19.70;46.20;102187.88;5054670;28;20068;-75
2022/03/17 11:11:58;;;;;;;20.30;18.20;;;;;;;19.73;46.23;102178.75;5051805;28;20055;-75
2022/03/17 11:14:26;;;;;;;20.05;17.95;;;;;;;19.73;46.40;102176.06;5053891;28;20049;-75
2022/03/17 11:16:56;;;;;;;20.13;17.95;;;;;;;19.75;46.24;102176.81;5054068;28;20057;-75
2022/03/17 11:19:28;;;;;;;19.70;16.83;;;;;;;19.75;46.28;102180.34;5052699;28;20048;-75
2022/03/17 11:22:08;;;;;;;17.15;15.30;;;;;;;19.75;46.16;102177.66;5053579;28;20070;-75
2022/03/17 11:24:40;;;;;;;19.25;15.45;;;;;;;19.76;46.22;102174.00;5052413;28;20404;-75
2022/03/17 11:27:11;;;;;;;17.37;15.57;;;;;;;19.77;45.98;102180.28;5054241;28;20065;-75
2022/03/17 11:29:47;;;;;;;17.42;15.15;;;;;;;19.78;46.07;102178.44;5052657;28;20044;-75
2022/03/17 11:32:24;;;;;;;15.75;14.20;;;;;;;19.79;46.02;102169.41;5053743;28;20052;-75
2022/03/17 11:35:05;;;;;;;14.40;12.73;;;;;;;19.79;46.03;102180.16;5053742;28;20049;-75
2022/03/17 11:37:33;;;;;;;14.55;13.15;;;;;;;19.80;46.13;102166.59;5052342;28;20059;-75
2022/03/17 11:40:00;;;;;;;13.38;11.98;;;;;;;19.81;45.97;102180.91;5053662;28;20045;-75
2022/03/17 11:42:49;;;;;;;12.68;11.38;;;;;;;19.80;46.00;102177.34;5053565;28;20060;-75
2022/03/17 11:45:16;;;;;;;13.50;12.20;;;;;;;19.83;46.03;102176.31;5053831;28;20052;-75